Time;durP1;ratioP1;P1;durP2;ratioP2;P2;SDS_P1;SDS_P2;PMS_P1;PMS_P2;Temp;Humidity;BMP_temperature;BMP_pressure;BME280_temperature;BME280_humidity;BME280_pressure;Samples;Min_cycle;Max_cycle;Signal;HPM_P1;HPM_P2
2022/10/11 00:00:32;;;;;;;9.40;1.95;;;11.50;99.90;;;;;;5010414;28;20046;-81
2022/10/11 00:02:58;;;;;;;9.82;2.13;;;11.50;99.90;;;;;;4997468;28;20061;-81
2022/10/11 00:05:24;;;;;;;9.23;2.60;;;11.50;99.90;;;;;;5036413;28;20042;-81
2022/10/11 00:07:50;;;;;;;11.30;2.05;;;12.10;99.90;;;;;;5014310;28;20773;-81
2022/10/11 00:10:17;;;;;;;10.90;1.77;;;11.50;99.90;;;;;;4980412;28;20057;-81
2022/10/11 00:12:43;;;;;;;8.55;2.42;;;11.40;99.90;;;;;;5027955;28;20049;-81
2022/10/11 00:15:12;;;;;;;8.88;1.80;;;11.40;99.90;;;;;;5013997;28;20115;-82
2022/10/11 00:17:38;;;;;;;7.30;1.50;;;11.40;99.90;;;;;;5013323;28;20061;-81
2022/10/11 00:20:04;;;;;;;8.68;1.92;;;11.40;99.90;;;;;;5015214;28;20616;-81
2022/10/11 00:22:30;;;;;;;8.63;1.63;;;11.40;99.90;;;;;;4997502;28;20437;-81
2022/10/11 00:24:57;;;;;;;10.05;1.98;;;11.30;99.90;;;;;;5013584;28;20056;-81
2022/10/11 00:27:23;;;;;;;11.65;2.08;;;11.30;99.90;;;;;;4982479;28;20046;-80
2022/10/11 00:29:49;;;;;;;9.77;1.77;;;11.30;99.90;;;;;;4994003;28;20717;-81
2022/10/11 00:32:15;;;;;;;10.98;2.15;;;11.30;99.90;;;;;;5013038;28;20142;-81
2022/10/11 00:34:40;;;;;;;10.32;2.03;;;11.30;99.90;;;;;;4979347;28;20073;-81
2022/10/11 00:37:06;;;;;;;6.93;1.67;;;11.20;99.90;;;;;;4993311;28;20049;-81
2022/10/11 00:39:32;;;;;;;8.32;1.92;;;11.20;99.90;;;;;;5012549;28;20043;-81
2022/10/11 00:41:58;;;;;;;9.07;2.65;;;11.20;99.90;;;;;;5012358;28;20147;-80
2022/10/11 00:44:26;;;;;;;8.82;2.00;;;11.20;99.90;;;;;;5014542;28;20379;-81
2022/10/11 00:47:13;;;;;;;14.80;2.45;;;11.20;99.90;;;;;;5002230;28;20046;-81
2022/10/11 00:49:55;;;;;;;13.23;2.15;;;11.20;99.90;;;;;;5013214;28;20384;-80
2022/10/11 00:52:32;;;;;;;11.35;1.95;;;11.10;99.90;;;;;;5015699;28;20041;-80
2022/10/11 00:55:12;;;;;;;6.22;1.80;;;11.20;99.90;;;;;;5013837;28;20376;-80
2022/10/11 00:57:44;;;;;;;10.48;1.80;;;11.00;99.90;;;;;;5012215;28;20492;-80
2022/10/11 01:00:12;;;;;;;6.20;2.03;;;11.00;99.90;;;;;;4995740;28;20071;-81
2022/10/11 01:02:39;;;;;;;6.97;1.83;;;11.00;99.90;;;;;;5019727;28;20091;-80
2022/10/11 01:05:07;;;;;;;6.85;1.80;;;11.10;99.90;;;;;;4995870;28;20441;-80
2022/10/11 01:07:33;;;;;;;9.30;1.67;;;10.90;99.90;;;;;;5002196;28;20096;-81
2022/10/11 01:09:59;;;;;;;8.55;1.88;;;10.80;99.90;;;;;;5034683;28;20064;-80
2022/10/11 01:12:28;;;;;;;11.10;2.67;;;10.80;99.90;;;;;;5011953;28;20038;-80
2022/10/11 01:15:32;;;;;;;12.18;2.40;;;10.80;99.90;;;;;;5019268;28;20463;-80
2022/10/11 01:18:15;;;;;;;7.60;1.90;;;10.70;99.90;;;;;;4997021;28;20099;-81
2022/10/11 01:20:41;;;;;;;7.82;1.92;;;10.70;99.90;;;;;;5012539;28;20085;-81
2022/10/11 01:23:44;;;;;;;7.07;1.70;;;10.70;99.90;;;;;;4997199;28;20569;-81
2022/10/11 01:26:18;;;;;;;9.25;1.52;;;10.60;99.90;;;;;;4997302;28;20075;-81
2022/10/11 01:28:50;;;;;;;8.45;2.00;;;10.60;99.90;;;;;;5007791;28;20093;-81
2022/10/11 01:31:18;;;;;;;13.30;2.22;;;10.60;99.90;;;;;;5015868;28;20045;-80
2022/10/11 01:33:53;;;;;;;7.25;1.73;;;10.60;99.90;;;;;;5006351;28;20053;-80
2022/10/11 01:36:37;;;;;;;9.00;2.15;;;10.60;99.90;;;;;;5001572;28;20037;-80
2022/10/11 01:39:12;;;;;;;9.35;2.00;;;9.70;99.90;;;;;;5006488;28;20078;-81
2022/10/11 01:41:41;;;;;;;9.88;2.00;;;10.50;99.90;;;;;;5004944;28;20491;-81
2022/10/11 01:44:08;;;;;;;9.32;2.08;;;10.50;99.90;;;;;;5018081;28;20053;-81
2022/10/11 01:46:35;;;;;;;7.57;1.70;;;10.50;99.90;;;;;;5017126;28;20037;-80
2022/10/11 01:49:02;;;;;;;11.93;2.15;;;10.40;99.90;;;;;;4982515;28;20163;-80
2022/10/11 01:51:44;;;;;;;7.43;2.20;;;10.50;99.90;;;;;;5001567;28;20479;-80
2022/10/11 01:54:47;;;;;;;12.52;2.05;;;10.40;99.90;;;;;;5015921;28;20049;-80
2022/10/11 01:57:31;;;;;;;9.35;1.98;;;10.40;99.90;;;;;;5004512;28;20577;-80
2022/10/11 02:00:00;;;;;;;8.57;1.95;;;10.40;99.90;;;;;;5014246;28;20119;-81
2022/10/11 02:02:43;;;;;;;10.25;1.88;;;10.40;99.90;;;;;;5007402;28;20399;-81
2022/10/11 02:05:34;;;;;;;7.35;1.60;;;10.30;99.90;;;;;;4998156;28;20088;-81
2022/10/11 02:08:14;;;;;;;10.18;2.05;;;10.30;99.90;;;;;;4996913;28;20531;-81
2022/10/11 02:11:03;;;;;;;10.45;1.88;;;10.20;99.90;;;;;;5001462;28;20045;-80
2022/10/11 02:13:31;;;;;;;6.50;1.90;;;10.10;99.90;;;;;;5016043;28;20394;-80
2022/10/11 02:16:00;;;;;;;8.25;2.38;;;10.10;99.90;;;;;;4998650;28;20142;-80
2022/10/11 02:18:32;;;;;;;6.68;1.50;;;10.20;99.90;;;;;;5014705;28;20053;-80
2022/10/11 02:21:00;;;;;;;9.18;2.10;;;10.20;99.90;;;;;;5011970;28;20045;-81
2022/10/11 02:23:35;;;;;;;8.68;2.05;;;10.20;99.90;;;;;;5014418;28;20498;-80
2022/10/11 02:26:05;;;;;;;8.32;1.75;;;10.20;99.90;;;;;;5032417;28;20184;-81
2022/10/11 02:28:35;;;;;;;5.28;1.50;;;10.20;99.90;;;;;;4999215;28;20049;-81
2022/10/11 02:31:04;;;;;;;8.82;1.98;;;10.10;99.90;;;;;;5014709;28;20057;-80
2022/10/11 02:34:01;;;;;;;9.82;2.13;;;10.10;99.90;;;;;;5014572;28;20435;-81
2022/10/11 02:36:46;;;;;;;7.38;1.65;;;10.00;99.90;;;;;;5016981;28;20049;-81
2022/10/11 02:39:27;;;;;;;8.68;2.42;;;10.00;99.90;;;;;;5014937;28;20049;-81
2022/10/11 02:41:56;;;;;;;10.25;2.22;;;10.00;99.90;;;;;;5014938;28;20429;-81
2022/10/11 02:44:30;;;;;;;9.63;2.08;;;10.50;99.90;;;;;;5007128;28;20081;-81
2022/10/11 02:46:58;;;;;;;7.88;1.55;;;10.00;99.90;;;;;;5017291;28;20050;-80
2022/10/11 02:49:26;;;;;;;9.02;2.08;;;10.30;99.90;;;;;;5016336;28;20042;-81
2022/10/11 02:51:54;;;;;;;9.25;2.10;;;9.90;99.90;;;;;;5022848;28;20103;-81
2022/10/11 02:54:20;;;;;;;9.70;1.98;;;9.90;99.90;;;;;;5004323;28;20620;-80
2022/10/11 02:56:46;;;;;;;7.93;1.83;;;9.90;99.90;;;;;;4999459;28;20505;-80
2022/10/11 02:59:12;;;;;;;9.15;1.80;;;9.90;99.90;;;;;;4999533;28;20033;-80
2022/10/11 03:01:37;;;;;;;9.18;2.22;;;9.80;99.90;;;;;;4999888;28;20057;-80
2022/10/11 03:04:03;;;;;;;7.85;1.67;;;9.80;99.90;;;;;;5013283;28;20056;-80
2022/10/11 03:06:29;;;;;;;12.52;2.47;;;9.80;99.90;;;;;;5004570;28;20045;-81
2022/10/11 03:08:54;;;;;;;8.38;1.90;;;9.80;99.90;;;;;;5006058;28;20390;-80
2022/10/11 03:11:20;;;;;;;8.50;1.77;;;9.90;99.90;;;;;;4998603;28;20175;-80
2022/10/11 03:13:46;;;;;;;8.82;2.33;;;10.00;99.90;;;;;;5013271;28;20045;-81
2022/10/11 03:16:11;;;;;;;7.15;1.77;;;10.00;99.90;;;;;;4999851;28;20556;-81
2022/10/11 03:18:37;;;;;;;9.13;1.80;;;10.00;99.90;;;;;;4996710;28;20046;-81
2022/10/11 03:21:03;;;;;;;9.82;2.05;;;10.10;99.90;;;;;;5013770;28;20638;-80
2022/10/11 03:23:29;;;;;;;8.75;1.60;;;10.00;99.90;;;;;;5009825;28;20049;-81
2022/10/11 03:25:54;;;;;;;7.97;1.67;;;10.00;99.90;;;;;;4981182;28;20609;-81
2022/10/11 03:28:20;;;;;;;6.72;1.83;;;10.30;99.90;;;;;;5011345;28;20045;-80
2022/10/11 03:30:47;;;;;;;7.30;1.77;;;10.20;99.90;;;;;;4999133;28;20786;-79
2022/10/11 03:33:13;;;;;;;5.30;1.70;;;10.20;99.90;;;;;;4986522;28;20045;-80
2022/10/11 03:35:39;;;;;;;13.50;2.65;;;10.30;99.90;;;;;;4983139;28;20048;-80
2022/10/11 03:38:05;;;;;;;8.95;1.65;;;10.70;99.90;;;;;;4998733;28;20045;-80
2022/10/11 03:40:31;;;;;;;11.75;2.10;;;10.40;99.90;;;;;;5020042;28;20048;-81
2022/10/11 03:42:56;;;;;;;12.30;2.00;;;10.40;99.90;;;;;;4998105;28;20391;-80
2022/10/11 03:45:22;;;;;;;10.18;2.28;;;10.30;99.90;;;;;;4966291;28;20049;-80
2022/10/11 03:47:48;;;;;;;7.97;1.90;;;10.30;99.90;;;;;;4994155;28;20435;-80
2022/10/11 03:50:14;;;;;;;12.57;1.90;;;10.30;99.90;;;;;;4998840;28;20041;-80
2022/10/11 03:52:40;;;;;;;11.52;2.22;;;10.20;99.90;;;;;;5012203;28;20045;-80
2022/10/11 03:55:06;;;;;;;13.13;2.30;;;10.30;99.90;;;;;;4998690;28;20045;-79
2022/10/11 03:57:32;;;;;;;9.85;2.08;;;10.20;99.90;;;;;;4995748;28;20041;-80
2022/10/11 03:59:57;;;;;;;11.02;2.28;;;10.20;99.90;;;;;;5021276;28;20569;-80
2022/10/11 04:02:23;;;;;;;7.70;1.58;;;10.20;99.90;;;;;;4998403;28;20049;-80
2022/10/11 04:04:49;;;;;;;7.78;1.80;;;10.20;99.90;;;;;;5001240;28;20049;-81
2022/10/11 04:07:14;;;;;;;5.72;1.77;;;10.10;99.90;;;;;;5013073;28;20483;-80
2022/10/11 04:09:40;;;;;;;6.43;1.50;;;10.00;99.90;;;;;;5004686;28;20042;-80
2022/10/11 04:12:06;;;;;;;9.10;2.10;;;10.00;99.90;;;;;;5012544;28;20131;-80
2022/10/11 04:14:32;;;;;;;12.43;2.20;;;10.00;99.90;;;;;;4994291;28;20046;-80
2022/10/11 04:16:57;;;;;;;8.20;2.10;;;9.90;99.90;;;;;;4998437;28;20050;-81
2022/10/11 04:19:23;;;;;;;9.43;1.95;;;9.90;99.90;;;;;;5001376;28;20178;-81
2022/10/11 04:21:49;;;;;;;5.82;1.67;;;9.90;99.90;;;;;;4999052;28;20052;-80
2022/10/11 04:24:14;;;;;;;9.80;2.17;;;9.80;99.90;;;;;;4997138;28;20129;-80
2022/10/11 04:26:40;;;;;;;6.90;1.92;;;9.80;99.90;;;;;;5013865;28;20495;-80
2022/10/11 04:29:06;;;;;;;6.97;1.90;;;9.80;99.90;;;;;;4999479;28;20119;-80
2022/10/11 04:31:31;;;;;;;7.70;2.00;;;9.70;99.90;;;;;;4992940;28;20494;-80
2022/10/11 04:33:57;;;;;;;8.77;1.75;;;9.70;99.90;;;;;;4987913;28;20442;-80
2022/10/11 04:36:23;;;;;;;5.53;1.50;;;9.70;99.90;;;;;;5013138;28;20128;-80
2022/10/11 04:38:49;;;;;;;5.80;2.05;;;9.70;99.90;;;;;;4965374;28;20458;-81
2022/10/11 04:41:15;;;;;;;6.55;1.42;;;8.20;99.90;;;;;;4998766;28;20057;-80
2022/10/11 04:43:41;;;;;;;5.10;1.45;;;9.60;99.90;;;;;;4997969;28;20053;-80
2022/10/11 04:46:07;;;;;;;7.32;1.73;;;9.60;99.90;;;;;;4988093;28;20056;-80
2022/10/11 04:48:33;;;;;;;5.85;1.60;;;9.50;99.90;;;;;;5035517;28;20137;-80
2022/10/11 04:50:59;;;;;;;8.05;1.83;;;9.40;99.90;;;;;;5012632;28;20052;-81
2022/10/11 04:53:25;;;;;;;9.23;2.00;;;9.60;99.90;;;;;;4993066;28;20041;-80
2022/10/11 04:56:02;;;;;;;6.10;1.52;;;9.40;99.90;;;;;;4997320;28;20096;-81
2022/10/11 04:58:29;;;;;;;4.57;1.52;;;9.40;99.90;;;;;;5020508;28;20399;-80
2022/10/11 05:00:55;;;;;;;5.13;1.70;;;9.50;99.90;;;;;;5013365;28;20132;-80
2022/10/11 05:03:21;;;;;;;6.90;1.73;;;9.30;99.90;;;;;;5023384;28;20041;-80
2022/10/11 05:05:47;;;;;;;7.10;1.63;;;9.20;99.90;;;;;;4996714;28;20049;-80
2022/10/11 05:08:13;;;;;;;7.80;1.80;;;9.20;99.90;;;;;;4983395;28;20045;-81
2022/10/11 05:10:38;;;;;;;7.10;2.03;;;9.20;99.90;;;;;;4983191;28;20045;-81
2022/10/11 05:13:04;;;;;;;6.43;1.88;;;9.10;99.90;;;;;;4983353;28;20058;-80
2022/10/11 05:15:33;;;;;;;7.90;2.17;;;9.10;99.90;;;;;;4990290;28;20137;-80
2022/10/11 05:17:59;;;;;;;9.85;1.95;;;9.00;99.90;;;;;;5014914;28;20041;-80
2022/10/11 05:20:25;;;;;;;6.57;1.70;;;9.00;99.90;;;;;;5014703;28;20472;-80
2022/10/11 05:22:51;;;;;;;6.43;1.95;;;9.00;99.90;;;;;;5014785;28;20041;-80
2022/10/11 05:25:16;;;;;;;5.70;1.70;;;8.90;99.90;;;;;;4990140;28;20049;-80
2022/10/11 05:27:42;;;;;;;8.23;1.70;;;8.90;99.90;;;;;;4984312;28;20072;-80
2022/10/11 05:30:08;;;;;;;6.38;2.17;;;8.90;99.90;;;;;;5015194;28;21702;-80
2022/10/11 05:32:34;;;;;;;6.47;1.77;;;8.80;99.90;;;;;;5000955;28;20063;-80
2022/10/11 05:34:59;;;;;;;6.15;2.00;;;8.80;99.90;;;;;;5004391;28;20061;-81
2022/10/11 05:37:25;;;;;;;5.72;1.67;;;8.80;99.90;;;;;;5002958;28;20033;-80
2022/10/11 05:39:52;;;;;;;8.60;1.67;;;8.70;99.90;;;;;;5000504;28;20053;-81
2022/10/11 05:42:17;;;;;;;8.13;1.98;;;8.70;99.90;;;;;;5001085;28;20053;-79
2022/10/11 05:44:43;;;;;;;4.05;1.63;;;8.70;99.90;;;;;;5002098;28;20251;-80
2022/10/11 05:47:08;;;;;;;10.02;2.08;;;8.70;99.90;;;;;;5012355;28;20050;-80
2022/10/11 05:49:34;;;;;;;6.85;1.70;;;8.60;99.90;;;;;;5002049;28;20510;-80
2022/10/11 05:52:00;;;;;;;5.32;1.60;;;8.60;99.90;;;;;;5000990;28;20055;-80
2022/10/11 05:54:29;;;;;;;6.50;1.70;;;8.60;99.90;;;;;;4983118;28;20132;-80
2022/10/11 05:56:55;;;;;;;10.98;2.15;;;8.60;99.90;;;;;;5005561;28;20111;-80
2022/10/11 05:59:20;;;;;;;9.40;2.03;;;8.60;99.90;;;;;;5015365;28;20042;-80
2022/10/11 06:01:47;;;;;;;8.07;1.90;;;8.60;99.90;;;;;;5000703;28;20488;-80
2022/10/11 06:04:15;;;;;;;6.40;2.08;;;8.50;99.90;;;;;;5001487;28;20045;-80
2022/10/11 06:06:41;;;;;;;7.47;1.67;;;8.50;99.90;;;;;;4983183;28;20053;-80
2022/10/11 06:09:07;;;;;;;5.63;1.60;;;8.50;99.90;;;;;;5014893;28;20372;-80
2022/10/11 06:11:33;;;;;;;4.28;1.70;;;8.60;99.90;;;;;;5015599;28;20041;-80
2022/10/11 06:13:59;;;;;;;9.05;2.10;;;8.50;99.90;;;;;;5000158;28;20052;-81
2022/10/11 06:16:25;;;;;;;4.13;1.50;;;8.90;99.90;;;;;;5001139;28;20045;-81
2022/10/11 06:18:58;;;;;;;8.50;1.98;;;8.60;99.90;;;;;;5005926;28;20045;-81
2022/10/11 06:21:24;;;;;;;7.65;1.63;;;8.60;99.90;;;;;;5013697;28;20049;-80
2022/10/11 06:23:51;;;;;;;11.10;1.63;;;9.10;99.90;;;;;;4996283;28;20091;-80
2022/10/11 06:26:17;;;;;;;5.28;2.10;;;8.70;99.90;;;;;;5011763;28;20050;-80
2022/10/11 06:28:43;;;;;;;6.63;1.92;;;9.90;99.90;;;;;;5003373;28;20132;-81
2022/10/11 06:31:09;;;;;;;6.68;1.80;;;8.80;99.90;;;;;;5014171;28;20116;-80
2022/10/11 06:33:36;;;;;;;4.85;1.70;;;8.80;99.90;;;;;;5005270;28;20136;-79
2022/10/11 06:36:08;;;;;;;10.05;1.85;;;8.90;99.90;;;;;;5014507;28;20034;-81
2022/10/11 06:38:34;;;;;;;5.57;1.98;;;9.00;99.90;;;;;;5005822;28;20054;-80
2022/10/11 06:41:09;;;;;;;14.63;2.10;;;9.20;99.90;;;;;;5015606;28;20053;-80
2022/10/11 06:43:34;;;;;;;8.90;1.90;;;9.50;99.90;;;;;;5014828;28;20068;-80
2022/10/11 06:46:00;;;;;;;13.23;2.13;;;9.70;99.90;;;;;;5000865;28;20569;-82
2022/10/11 06:48:26;;;;;;;8.05;2.40;;;9.90;99.90;;;;;;4983317;28;21811;-80
2022/10/11 06:50:52;;;;;;;6.75;2.05;;;10.10;99.90;;;;;;5019096;28;20049;-80
2022/10/11 06:53:17;;;;;;;11.82;2.03;;;10.30;99.90;;;;;;5002583;28;20107;-80
2022/10/11 06:55:43;;;;;;;11.27;2.03;;;10.30;99.90;;;;;;5002831;28;20076;-80
2022/10/11 06:58:09;;;;;;;8.45;2.50;;;10.40;99.90;;;;;;5019794;28;20129;-80
2022/10/11 07:00:35;;;;;;;8.50;2.30;;;10.40;99.90;;;;;;5002628;28;20120;-81
2022/10/11 07:03:01;;;;;;;10.00;2.10;;;10.40;99.90;;;;;;5019138;28;20041;-80
2022/10/11 07:05:28;;;;;;;4.93;1.52;;;10.40;99.90;;;;;;4985995;28;20107;-80
2022/10/11 07:07:54;;;;;;;6.68;2.03;;;10.30;99.90;;;;;;5002462;28;20495;-79
2022/10/11 07:10:19;;;;;;;8.40;1.70;;;10.40;99.90;;;;;;5002395;28;20057;-80
2022/10/11 07:12:45;;;;;;;8.93;1.85;;;10.40;99.90;;;;;;5002607;28;20700;-80
2022/10/11 07:15:11;;;;;;;10.77;2.30;;;10.40;99.90;;;;;;5001743;28;20057;-81
2022/10/11 07:17:37;;;;;;;7.53;1.52;;;10.40;99.90;;;;;;5002036;28;20132;-81
2022/10/11 07:20:04;;;;;;;4.63;1.42;;;10.40;99.90;;;;;;5017669;28;20120;-80
2022/10/11 07:22:29;;;;;;;6.90;1.55;;;10.40;99.90;;;;;;5026236;28;20068;-80
2022/10/11 07:24:55;;;;;;;6.97;1.95;;;10.40;99.90;;;;;;5010330;28;20404;-79
2022/10/11 07:27:22;;;;;;;9.40;2.03;;;10.40;99.90;;;;;;5002378;28;20140;-80
2022/10/11 07:29:48;;;;;;;6.45;2.25;;;10.70;99.90;;;;;;5026329;28;20053;-80
2022/10/11 07:32:15;;;;;;;8.35;2.08;;;10.50;99.90;;;;;;4984164;28;20053;-78
2022/10/11 07:34:41;;;;;;;14.05;1.75;;;10.60;99.90;;;;;;5018159;28;20037;-79
2022/10/11 07:37:07;;;;;;;10.25;2.30;;;10.70;99.90;;;;;;5002387;28;20491;-80
2022/10/11 07:39:33;;;;;;;10.98;2.65;;;10.80;99.90;;;;;;5001594;28;20132;-79
2022/10/11 07:41:59;;;;;;;12.25;2.70;;;10.90;99.90;;;;;;5001924;28;20056;-85
2022/10/11 07:44:25;;;;;;;11.75;2.17;;;11.10;99.90;;;;;;5013557;28;20477;-80
2022/10/11 07:46:51;;;;;;;8.45;1.75;;;11.20;99.90;;;;;;5016442;28;20045;-83
2022/10/11 07:49:19;;;;;;;10.05;2.30;;;11.30;99.90;;;;;;5017313;28;20046;-82
2022/10/11 07:51:45;;;;;;;7.85;2.17;;;11.50;99.90;;;;;;5001463;28;20479;-79
2022/10/11 07:54:10;;;;;;;10.63;2.13;;;11.60;99.90;;;;;;4999232;28;20038;-79
2022/10/11 07:56:37;;;;;;;8.60;1.90;;;11.60;99.90;;;;;;4999494;28;20091;-80
2022/10/11 07:59:03;;;;;;;10.00;1.95;;;11.90;99.90;;;;;;5016968;28;20037;-84
2022/10/11 08:01:29;;;;;;;9.55;1.98;;;12.10;99.90;;;;;;5000420;28;20444;-80
2022/10/11 08:03:56;;;;;;;12.20;2.17;;;12.30;99.90;;;;;;5015749;28;20053;-80
2022/10/11 08:06:26;;;;;;;9.13;1.75;;;12.40;99.90;;;;;;5015101;28;20095;-82
2022/10/11 08:08:52;;;;;;;7.00;1.60;;;12.70;99.90;;;;;;5016807;28;20813;-81
2022/10/11 08:11:22;;;;;;;6.82;1.90;;;12.80;99.90;;;;;;5004429;28;20045;-81
2022/10/11 08:13:47;;;;;;;8.38;1.73;;;13.00;99.90;;;;;;4994306;28;20053;-80
2022/10/11 08:16:13;;;;;;;9.65;2.00;;;13.20;99.90;;;;;;5022617;28;20041;-80
2022/10/11 08:18:39;;;;;;;5.47;1.50;;;13.20;99.90;;;;;;4981899;28;20153;-79
2022/10/11 08:21:07;;;;;;;10.35;1.92;;;13.30;99.90;;;;;;4982934;28;20053;-80
2022/10/11 08:23:33;;;;;;;9.88;2.20;;;13.30;99.90;;;;;;5009118;28;20073;-79
2022/10/11 08:25:58;;;;;;;6.88;1.50;;;13.30;99.90;;;;;;5004717;28;20126;-81
2022/10/11 08:28:24;;;;;;;9.13;1.90;;;13.30;99.90;;;;;;4982286;28;20394;-81
2022/10/11 08:30:52;;;;;;;7.57;1.60;;;13.30;99.90;;;;;;5000392;28;20145;-83
2022/10/11 08:33:20;;;;;;;8.23;1.90;;;13.40;99.90;;;;;;5007163;28;20136;-83
2022/10/11 08:35:46;;;;;;;7.75;1.65;;;13.50;99.90;;;;;;5020412;28;20080;-81
2022/10/11 08:38:12;;;;;;;7.72;1.42;;;13.60;99.90;;;;;;5019777;28;20096;-80
2022/10/11 08:40:44;;;;;;;6.38;1.58;;;13.70;99.90;;;;;;5018300;28;20136;-84
2022/10/11 08:43:22;;;;;;;9.38;1.50;;;13.70;99.90;;;;;;5009022;28;20135;-81
2022/10/11 08:45:52;;;;;;;9.82;1.80;;;13.80;99.90;;;;;;5018433;28;20132;-82
2022/10/11 08:48:44;;;;;;;7.50;1.60;;;13.80;99.90;;;;;;5006451;28;20081;-90
2022/10/11 08:51:22;;;;;;;7.60;2.08;;;13.80;99.90;;;;;;5019805;28;20057;-83
2022/10/11 08:54:11;;;;;;;5.60;1.50;;;13.80;99.90;;;;;;4995771;28;20061;-85
2022/10/11 08:56:38;;;;;;;7.38;1.88;;;13.70;99.90;;;;;;4999416;28;20470;-83
2022/10/11 08:59:10;;;;;;;9.60;1.77;;;13.70;99.90;;;;;;5001183;28;20049;-83
2022/10/11 09:01:45;;;;;;;7.38;2.13;;;12.50;99.90;;;;;;5021169;28;20061;-81
2022/10/11 09:04:16;;;;;;;10.40;1.60;;;13.70;99.90;;;;;;5023731;28;20072;-80
2022/10/11 09:06:57;;;;;;;7.30;1.60;;;13.80;99.90;;;;;;5035732;28;20630;-80
2022/10/11 09:09:41;;;;;;;9.27;2.08;;;13.80;99.90;;;;;;5017776;28;20057;-82
2022/10/11 09:12:32;;;;;;;7.30;1.45;;;13.80;99.90;;;;;;5008935;28;20128;-82
2022/10/11 09:15:18;;;;;;;6.03;1.42;;;13.80;99.90;;;;;;5037946;28;20056;-82
2022/10/11 09:18:09;;;;;;;8.05;1.60;;;13.80;99.90;;;;;;4990934;28;20068;-82
2022/10/11 09:20:53;;;;;;;9.05;1.63;;;13.80;99.90;;;;;;5012656;28;20132;-82
2022/10/11 09:23:45;;;;;;;8.88;1.77;;;13.80;99.90;;;;;;5003506;28;20045;-83
2022/10/11 09:26:18;;;;;;;6.75;1.48;;;13.80;99.90;;;;;;5012699;28;20644;-82
2022/10/11 09:29:00;;;;;;;9.27;1.88;;;13.80;99.90;;;;;;5020531;28;20108;-82
2022/10/11 09:31:27;;;;;;;6.50;1.83;;;13.80;99.90;;;;;;5028639;28;20120;-82
2022/10/11 09:33:54;;;;;;;8.48;1.83;;;13.80;99.90;;;;;;5003835;28;20495;-84
2022/10/11 09:36:23;;;;;;;4.35;1.65;;;13.90;99.90;;;;;;5020184;28;20053;-82
2022/10/11 09:39:12;;;;;;;8.90;1.70;;;13.90;99.90;;;;;;5011738;28;20053;-81
2022/10/11 09:41:42;;;;;;;5.32;1.67;;;13.90;99.90;;;;;;5020150;28;20057;-80
2022/10/11 09:44:18;;;;;;;5.80;1.73;;;14.00;99.90;;;;;;5002805;28;20045;-81
2022/10/11 09:46:45;;;;;;;9.07;2.05;;;14.10;99.90;;;;;;5027367;28;20128;-80
2022/10/11 09:49:14;;;;;;;7.95;1.40;;;14.10;99.90;;;;;;5020148;28;20057;-81
2022/10/11 09:51:45;;;;;;;7.35;1.88;;;14.10;99.90;;;;;;5019724;28;20156;-81
2022/10/11 09:54:11;;;;;;;7.13;1.50;;;14.20;99.90;;;;;;5011910;28;20613;-81
2022/10/11 09:56:42;;;;;;;6.72;1.45;;;14.30;99.90;;;;;;5003114;28;20125;-81
2022/10/11 09:59:31;;;;;;;9.80;1.83;;;14.30;99.90;;;;;;5019447;28;20499;-80
2022/10/11 10:02:12;;;;;;;10.30;1.88;;;14.40;99.90;;;;;;5019448;28;20042;-80
2022/10/11 10:05:00;;;;;;;7.93;2.00;;;14.50;99.90;;;;;;5032882;28;20049;-80
2022/10/11 10:07:29;;;;;;;7.03;1.73;;;14.60;99.90;;;;;;5032003;28;20092;-81
2022/10/11 10:09:55;;;;;;;6.97;1.65;;;14.60;99.90;;;;;;4994969;28;20391;-81
2022/10/11 10:12:25;;;;;;;6.20;1.48;;;14.70;99.90;;;;;;5017010;28;20047;-80
2022/10/11 10:15:17;;;;;;;7.47;1.73;;;14.80;99.90;;;;;;5005688;28;20054;-81
2022/10/11 10:17:50;;;;;;;5.43;1.33;;;14.90;99.90;;;;;;5004135;28;20053;-80
2022/10/11 10:20:34;;;;;;;8.23;2.38;;;14.80;99.90;;;;;;5017720;28;20042;-81
2022/10/11 10:23:07;;;;;;;7.82;2.28;;;14.90;99.90;;;;;;5035069;28;20156;-81
2022/10/11 10:25:36;;;;;;;7.57;1.95;;;14.90;99.90;;;;;;5003617;28;20041;-80
2022/10/11 10:28:15;;;;;;;6.45;1.40;;;14.90;99.90;;;;;;5005747;28;20060;-81
2022/10/11 10:30:59;;;;;;;7.20;1.50;;;14.90;99.90;;;;;;5017100;28;20172;-81
2022/10/11 10:33:31;;;;;;;8.63;1.65;;;14.80;99.90;;;;;;4999411;28;20095;-82
2022/10/11 10:36:06;;;;;;;9.43;1.75;;;14.80;99.90;;;;;;5016003;28;20124;-82
2022/10/11 10:38:40;;;;;;;8.13;1.58;;;14.80;99.90;;;;;;4998594;28;20076;-80
2022/10/11 10:41:11;;;;;;;7.20;1.58;;;14.70;99.90;;;;;;5021749;28;20049;-79
2022/10/11 10:43:39;;;;;;;9.50;1.73;;;14.80;99.90;;;;;;5014360;28;20053;-81
2022/10/11 10:46:19;;;;;;;4.72;1.50;;;14.80;99.90;;;;;;5003706;28;20523;-81
2022/10/11 10:49:24;;;;;;;10.05;1.63;;;14.80;99.90;;;;;;5016232;28;20053;-82
2022/10/11 10:52:17;;;;;;;6.72;1.55;;;14.80;99.90;;;;;;5015634;28;20050;-82
2022/10/11 10:54:59;;;;;;;11.73;1.70;;;15.00;99.90;;;;;;5003889;28;20057;-81
2022/10/11 10:57:34;;;;;;;8.70;1.70;;;15.50;99.90;;;;;;5033854;28;20042;-80
2022/10/11 11:00:14;;;;;;;6.63;1.50;;;16.30;99.90;;;;;;5019164;28;20042;-80
2022/10/11 11:02:55;;;;;;;8.75;2.13;;;17.20;99.90;;;;;;5034269;28;20530;-80
2022/10/11 11:05:59;;;;;;;5.97;1.35;;;18.00;99.90;;;;;;5016674;28;20568;-82
2022/10/11 11:08:57;;;;;;;4.13;1.30;;;18.70;99.90;;;;;;5004928;28;20053;-80
2022/10/11 11:11:29;;;;;;;7.55;1.40;;;19.40;99.90;;;;;;5004745;28;20407;-80
2022/10/11 11:14:03;;;;;;;6.47;1.33;;;19.60;99.90;;;;;;5003207;28;20049;-80
2022/10/11 11:16:53;;;;;;;5.78;1.80;;;20.50;99.90;;;;;;4997323;28;20517;-80
2022/10/11 11:19:39;;;;;;;5.43;1.45;;;21.30;99.90;;;;;;5007811;28;20122;-81
2022/10/11 11:22:23;;;;;;;8.80;1.73;;;22.20;99.90;;;;;;5006430;28;20490;-81
2022/10/11 11:25:00;;;;;;;5.32;1.70;;;23.00;99.90;;;;;;4996536;28;20064;-81
2022/10/11 11:27:32;;;;;;;4.63;1.40;;;23.20;99.00;;;;;;4995506;28;20119;-81
2022/10/11 11:30:08;;;;;;;7.43;1.30;;;23.60;96.90;;;;;;5006808;28;20381;-86
2022/10/11 11:32:55;;;;;;;6.32;1.50;;;24.00;96.00;;;;;;5006795;28;20057;-82
2022/10/11 11:35:32;;;;;;;7.78;1.60;;;24.10;94.90;;;;;;5006829;28;20437;-81
2022/10/11 11:38:11;;;;;;;3.70;1.25;;;24.10;94.50;;;;;;4999554;28;20044;-81
2022/10/11 11:40:46;;;;;;;5.63;1.50;;;23.80;94.40;;;;;;5017841;28;20056;-81
2022/10/11 11:43:18;;;;;;;5.63;1.38;;;23.50;94.40;;;;;;5022331;28;20037;-81
2022/10/11 11:45:54;;;;;;;5.65;1.70;;;23.60;94.60;;;;;;5005598;28;20458;-81
2022/10/11 11:48:24;;;;;;;7.95;1.67;;;23.80;93.90;;;;;;5020478;28;20041;-81
2022/10/11 11:51:10;;;;;;;7.22;1.60;;;23.40;93.60;;;;;;5016435;28;20175;-81
2022/10/11 11:54:13;;;;;;;6.00;1.57;;;23.60;93.90;;;;;;5006256;28;20054;-81
2022/10/11 11:56:51;;;;;;;4.32;1.48;;;23.60;93.20;;;;;;4998692;28;20077;-82
2022/10/11 11:59:32;;;;;;;5.90;1.30;;;23.90;93.10;;;;;;5024209;28;20095;-81
2022/10/11 12:02:15;;;;;;;5.28;1.38;;;24.00;92.30;;;;;;5016813;28;20483;-82
2022/10/11 12:04:43;;;;;;;6.95;1.65;;;24.20;92.90;;;;;;5016345;28;20049;-82
2022/10/11 12:07:11;;;;;;;7.22;1.45;;;24.40;92.40;;;;;;5017315;28;20055;-82
2022/10/11 12:09:40;;;;;;;6.93;1.67;;;24.80;92.00;;;;;;5017417;28;20443;-82
2022/10/11 12:12:08;;;;;;;5.88;1.27;;;25.00;91.30;;;;;;5015071;28;20045;-81
2022/10/11 12:14:35;;;;;;;3.95;1.40;;;25.00;91.10;;;;;;4985014;28;20084;-83
2022/10/11 12:17:10;;;;;;;5.65;1.70;;;25.20;90.70;;;;;;5016173;28;20087;-82
2022/10/11 12:19:38;;;;;;;6.63;1.60;;;24.90;87.90;;;;;;5024251;28;20038;-87
2022/10/11 12:22:26;;;;;;;4.95;1.38;;;24.90;90.30;;;;;;5033888;28;20105;-87
2022/10/11 12:24:54;;;;;;;6.53;1.48;;;24.80;88.90;;;;;;5014982;28;20057;-86
2022/10/11 12:27:45;;;;;;;5.13;1.40;;;25.10;90.40;;;;;;5017081;28;20596;-85
2022/10/11 12:30:43;;;;;;;4.82;1.25;;;25.30;89.20;;;;;;5032287;28;20085;-85
2022/10/11 12:33:22;;;;;;;3.65;1.40;;;25.50;86.80;;;;;;4994419;28;20129;-83
2022/10/11 12:35:53;;;;;;;6.10;1.60;;;25.30;88.50;;;;;;5014378;28;20057;-84
2022/10/11 12:38:25;;;;;;;5.45;1.10;;;25.50;89.40;;;;;;5021065;28;20050;-87
2022/10/11 12:41:12;;;;;;;10.38;1.95;;;25.40;89.60;;;;;;5023911;28;20042;-84
2022/10/11 12:43:47;;;;;;;6.15;1.30;;;25.20;88.70;;;;;;4998214;28;20050;-84
2022/10/11 12:46:28;;;;;;;5.72;1.30;;;25.30;88.30;;;;;;4998038;28;20045;-86
2022/10/11 12:49:10;;;;;;;3.90;1.13;;;25.00;85.40;;;;;;4997860;28;20038;-88
2022/10/11 12:51:51;;;;;;;4.18;1.15;;;24.70;88.10;;;;;;4998526;28;20053;-80
2022/10/11 12:54:24;;;;;;;6.07;1.48;;;24.60;88.70;;;;;;5013727;28;20041;-81
2022/10/11 12:57:09;;;;;;;6.25;1.20;;;24.70;89.10;;;;;;5012826;28;20145;-79
2022/10/11 12:59:43;;;;;;;6.57;1.48;;;24.50;87.50;;;;;;5018251;28;20045;-80
2022/10/11 13:02:28;;;;;;;6.43;1.30;;;24.30;87.80;;;;;;5011934;28;20072;-80
2022/10/11 13:05:19;;;;;;;4.53;1.60;;;24.20;87.70;;;;;;5012971;28;20065;-80
2022/10/11 13:07:45;;;;;;;4.85;1.30;;;23.70;89.00;;;;;;4997190;28;20316;-81
2022/10/11 13:10:46;;;;;;;4.97;1.35;;;23.40;90.00;;;;;;4978125;28;20041;-80